sensor_id;sensor_type;location;lat;lon;timestamp;P1;durP1;ratioP1;P2;durP2;ratioP2
13689;SDS011;6917;52.194;9.894;2022-10-31T00:01:20;1.63;;;1.20;;
13689;SDS011;6917;52.194;9.894;2022-10-31T00:03:48;4.07;;;1.00;;
13689;SDS011;6917;52.194;9.894;2022-10-31T00:06:14;1.07;;;1.07;;
13689;SDS011;6917;52.194;9.894;2022-10-31T00:08:43;0.57;;;0.57;;
13689;SDS011;6917;52.194;9.894;2022-10-31T00:11:09;1.63;;;1.53;;
13689;SDS011;6917;52.194;9.894;2022-10-31T00:13:35;0.90;;;0.90;;
13689;SDS011;6917;52.194;9.894;2022-10-31T00:16:00;0.60;;;0.57;;
13689;SDS011;6917;52.194;9.894;2022-10-31T00:18:26;1.17;;;1.13;;
13689;SDS011;6917;52.194;9.894;2022-10-31T00:21:01;2.40;;;2.27;;
13689;SDS011;6917;52.194;9.894;2022-10-31T00:23:27;0.53;;;0.53;;
13689;SDS011;6917;52.194;9.894;2022-10-31T00:25:52;2.73;;;1.20;;
13689;SDS011;6917;52.194;9.894;2022-10-31T00:28:18;1.40;;;1.30;;
13689;SDS011;6917;52.194;9.894;2022-10-31T00:30:43;3.57;;;1.37;;
13689;SDS011;6917;52.194;9.894;2022-10-31T00:33:08;1.13;;;1.10;;
13689;SDS011;6917;52.194;9.894;2022-10-31T00:35:33;2.20;;;1.87;;
13689;SDS011;6917;52.194;9.894;2022-10-31T00:37:59;1.70;;;1.20;;
13689;SDS011;6917;52.194;9.894;2022-10-31T00:40:24;1.83;;;1.73;;
13689;SDS011;6917;52.194;9.894;2022-10-31T00:42:50;1.37;;;1.30;;
13689;SDS011;6917;52.194;9.894;2022-10-31T00:45:15;3.50;;;1.10;;
13689;SDS011;6917;52.194;9.894;2022-10-31T00:47:40;1.40;;;1.30;;
13689;SDS011;6917;52.194;9.894;2022-10-31T00:50:06;1.13;;;1.13;;
13689;SDS011;6917;52.194;9.894;2022-10-31T00:52:31;1.17;;;1.10;;
13689;SDS011;6917;52.194;9.894;2022-10-31T00:54:57;25.07;;;2.63;;
13689;SDS011;6917;52.194;9.894;2022-10-31T00:57:22;8.33;;;2.30;;
13689;SDS011;6917;52.194;9.894;2022-10-31T00:59:47;2.73;;;2.53;;
13689;SDS011;6917;52.194;9.894;2022-10-31T01:02:12;2.03;;;1.73;;
13689;SDS011;6917;52.194;9.894;2022-10-31T01:04:38;2.63;;;2.10;;
13689;SDS011;6917;52.194;9.894;2022-10-31T01:07:03;2.80;;;2.40;;
13689;SDS011;6917;52.194;9.894;2022-10-31T01:09:28;3.50;;;2.63;;
13689;SDS011;6917;52.194;9.894;2022-10-31T01:11:54;6.00;;;3.13;;
13689;SDS011;6917;52.194;9.894;2022-10-31T01:14:19;6.83;;;2.53;;
13689;SDS011;6917;52.194;9.894;2022-10-31T01:16:44;5.60;;;3.50;;
13689;SDS011;6917;52.194;9.894;2022-10-31T01:19:09;6.23;;;2.43;;
13689;SDS011;6917;52.194;9.894;2022-10-31T01:21:35;2.80;;;2.60;;
13689;SDS011;6917;52.194;9.894;2022-10-31T01:24:00;2.80;;;2.60;;
13689;SDS011;6917;52.194;9.894;2022-10-31T01:26:29;3.73;;;3.43;;
13689;SDS011;6917;52.194;9.894;2022-10-31T01:29:00;10.60;;;4.43;;
13689;SDS011;6917;52.194;9.894;2022-10-31T01:31:29;5.13;;;2.87;;
13689;SDS011;6917;52.194;9.894;2022-10-31T01:33:56;9.30;;;2.93;;
13689;SDS011;6917;52.194;9.894;2022-10-31T01:36:23;2.23;;;2.07;;
13689;SDS011;6917;52.194;9.894;2022-10-31T01:38:53;12.00;;;3.77;;
13689;SDS011;6917;52.194;9.894;2022-10-31T01:41:22;3.30;;;3.00;;
13689;SDS011;6917;52.194;9.894;2022-10-31T01:46:36;3.83;;;2.27;;
13689;SDS011;6917;52.194;9.894;2022-10-31T01:49:05;3.93;;;2.53;;
13689;SDS011;6917;52.194;9.894;2022-10-31T01:51:53;5.73;;;2.87;;
13689;SDS011;6917;52.194;9.894;2022-10-31T01:54:23;5.40;;;4.77;;
13689;SDS011;6917;52.194;9.894;2022-10-31T01:56:54;5.17;;;4.60;;
13689;SDS011;6917;52.194;9.894;2022-10-31T01:59:22;9.00;;;4.13;;
13689;SDS011;6917;52.194;9.894;2022-10-31T02:01:52;5.67;;;4.83;;
13689;SDS011;6917;52.194;9.894;2022-10-31T02:04:17;13.97;;;6.57;;
13689;SDS011;6917;52.194;9.894;2022-10-31T02:06:46;12.13;;;4.13;;
13689;SDS011;6917;52.194;9.894;2022-10-31T02:09:14;4.30;;;4.00;;
13689;SDS011;6917;52.194;9.894;2022-10-31T02:11:40;13.43;;;7.03;;
13689;SDS011;6917;52.194;9.894;2022-10-31T02:14:06;16.00;;;5.83;;
13689;SDS011;6917;52.194;9.894;2022-10-31T02:16:31;13.57;;;6.30;;
13689;SDS011;6917;52.194;9.894;2022-10-31T02:18:56;11.13;;;5.13;;
13689;SDS011;6917;52.194;9.894;2022-10-31T02:26:41;8.47;;;7.30;;
13689;SDS011;6917;52.194;9.894;2022-10-31T02:31:45;6.07;;;5.40;;
13689;SDS011;6917;52.194;9.894;2022-10-31T02:34:34;4.73;;;4.20;;
13689;SDS011;6917;52.194;9.894;2022-10-31T02:39:35;8.43;;;5.37;;
13689;SDS011;6917;52.194;9.894;2022-10-31T02:42:09;5.00;;;4.53;;
13689;SDS011;6917;52.194;9.894;2022-10-31T02:47:14;5.00;;;4.57;;
13689;SDS011;6917;52.194;9.894;2022-10-31T02:49:48;9.20;;;5.17;;
13689;SDS011;6917;52.194;9.894;2022-10-31T02:52:23;4.30;;;4.00;;
13689;SDS011;6917;52.194;9.894;2022-10-31T02:54:50;16.77;;;4.03;;
13689;SDS011;6917;52.194;9.894;2022-10-31T02:57:17;4.57;;;4.20;;
13689;SDS011;6917;52.194;9.894;2022-10-31T02:59:55;9.13;;;3.77;;
13689;SDS011;6917;52.194;9.894;2022-10-31T03:13:07;6.03;;;3.13;;
13689;SDS011;6917;52.194;9.894;2022-10-31T03:15:39;2.93;;;2.70;;
13689;SDS011;6917;52.194;9.894;2022-10-31T03:18:10;3.83;;;3.63;;
13689;SDS011;6917;52.194;9.894;2022-10-31T03:20:41;8.27;;;7.47;;
13689;SDS011;6917;52.194;9.894;2022-10-31T03:23:14;3.70;;;3.47;;
13689;SDS011;6917;52.194;9.894;2022-10-31T03:25:42;5.23;;;3.27;;
13689;SDS011;6917;52.194;9.894;2022-10-31T03:28:09;2.63;;;2.53;;
13689;SDS011;6917;52.194;9.894;2022-10-31T03:30:38;6.63;;;5.80;;
13689;SDS011;6917;52.194;9.894;2022-10-31T03:33:07;3.53;;;3.33;;
13689;SDS011;6917;52.194;9.894;2022-10-31T03:35:39;2.17;;;2.07;;
13689;SDS011;6917;52.194;9.894;2022-10-31T03:38:09;0.93;;;0.93;;
13689;SDS011;6917;52.194;9.894;2022-10-31T03:40:35;2.77;;;1.30;;
13689;SDS011;6917;52.194;9.894;2022-10-31T03:43:05;2.23;;;1.70;;
13689;SDS011;6917;52.194;9.894;2022-10-31T03:45:36;2.13;;;2.03;;
13689;SDS011;6917;52.194;9.894;2022-10-31T03:48:06;2.63;;;2.43;;
13689;SDS011;6917;52.194;9.894;2022-10-31T03:50:36;6.30;;;2.70;;
13689;SDS011;6917;52.194;9.894;2022-10-31T03:53:13;5.57;;;5.10;;
13689;SDS011;6917;52.194;9.894;2022-10-31T03:55:51;8.20;;;3.13;;
13689;SDS011;6917;52.194;9.894;2022-10-31T03:58:23;5.27;;;4.77;;
13689;SDS011;6917;52.194;9.894;2022-10-31T04:00:53;3.50;;;2.00;;
13689;SDS011;6917;52.194;9.894;2022-10-31T04:05:58;8.83;;;4.97;;
13689;SDS011;6917;52.194;9.894;2022-10-31T04:08:28;4.07;;;3.77;;
13689;SDS011;6917;52.194;9.894;2022-10-31T04:10:56;3.37;;;3.07;;
13689;SDS011;6917;52.194;9.894;2022-10-31T04:13:27;9.87;;;3.77;;
13689;SDS011;6917;52.194;9.894;2022-10-31T04:15:54;3.67;;;3.40;;
13689;SDS011;6917;52.194;9.894;2022-10-31T04:18:21;8.33;;;4.90;;
13689;SDS011;6917;52.194;9.894;2022-10-31T04:20:47;13.87;;;2.53;;
13689;SDS011;6917;52.194;9.894;2022-10-31T04:23:19;5.80;;;4.27;;
13689;SDS011;6917;52.194;9.894;2022-10-31T04:25:47;5.30;;;3.80;;
13689;SDS011;6917;52.194;9.894;2022-10-31T04:28:12;3.07;;;2.87;;
13689;SDS011;6917;52.194;9.894;2022-10-31T04:30:38;3.57;;;3.27;;
13689;SDS011;6917;52.194;9.894;2022-10-31T04:33:03;7.43;;;5.40;;
13689;SDS011;6917;52.194;9.894;2022-10-31T04:35:28;2.50;;;2.40;;
13689;SDS011;6917;52.194;9.894;2022-10-31T04:37:54;3.17;;;2.70;;
13689;SDS011;6917;52.194;9.894;2022-10-31T04:40:19;10.53;;;6.30;;
13689;SDS011;6917;52.194;9.894;2022-10-31T04:42:44;3.60;;;3.40;;
13689;SDS011;6917;52.194;9.894;2022-10-31T04:45:09;6.77;;;4.13;;
13689;SDS011;6917;52.194;9.894;2022-10-31T04:47:35;4.27;;;3.90;;
13689;SDS011;6917;52.194;9.894;2022-10-31T04:50:00;8.40;;;1.83;;
13689;SDS011;6917;52.194;9.894;2022-10-31T04:52:27;1.47;;;1.47;;
13689;SDS011;6917;52.194;9.894;2022-10-31T04:54:52;1.47;;;1.23;;
13689;SDS011;6917;52.194;9.894;2022-10-31T04:57:17;1.50;;;1.50;;
13689;SDS011;6917;52.194;9.894;2022-10-31T04:59:43;1.07;;;1.07;;
13689;SDS011;6917;52.194;9.894;2022-10-31T05:02:08;2.17;;;1.97;;
13689;SDS011;6917;52.194;9.894;2022-10-31T05:04:33;0.30;;;0.30;;
13689;SDS011;6917;52.194;9.894;2022-10-31T05:06:58;1.20;;;1.10;;
13689;SDS011;6917;52.194;9.894;2022-10-31T05:09:24;14.80;;;2.83;;
13689;SDS011;6917;52.194;9.894;2022-10-31T05:11:49;1.80;;;1.77;;
13689;SDS011;6917;52.194;9.894;2022-10-31T05:14:14;0.03;;;0.03;;
13689;SDS011;6917;52.194;9.894;2022-10-31T05:16:40;11.30;;;3.47;;
13689;SDS011;6917;52.194;9.894;2022-10-31T05:19:05;4.53;;;3.20;;
13689;SDS011;6917;52.194;9.894;2022-10-31T05:21:30;1.50;;;1.50;;
13689;SDS011;6917;52.194;9.894;2022-10-31T05:23:55;0.83;;;0.83;;
13689;SDS011;6917;52.194;9.894;2022-10-31T05:26:21;0.10;;;0.10;;
13689;SDS011;6917;52.194;9.894;2022-10-31T05:28:46;0.00;;;0.00;;
13689;SDS011;6917;52.194;9.894;2022-10-31T05:31:11;0.00;;;0.00;;
13689;SDS011;6917;52.194;9.894;2022-10-31T05:33:36;0.00;;;0.00;;
13689;SDS011;6917;52.194;9.894;2022-10-31T05:36:02;0.00;;;0.00;;
13689;SDS011;6917;52.194;9.894;2022-10-31T05:38:27;0.77;;;0.77;;
13689;SDS011;6917;52.194;9.894;2022-10-31T05:40:55;0.13;;;0.13;;
13689;SDS011;6917;52.194;9.894;2022-10-31T05:43:25;3.20;;;2.93;;
13689;SDS011;6917;52.194;9.894;2022-10-31T05:45:52;1.23;;;1.20;;
13689;SDS011;6917;52.194;9.894;2022-10-31T05:48:18;2.03;;;1.93;;
13689;SDS011;6917;52.194;9.894;2022-10-31T05:50:44;0.17;;;0.17;;
13689;SDS011;6917;52.194;9.894;2022-10-31T05:53:09;0.23;;;0.23;;
13689;SDS011;6917;52.194;9.894;2022-10-31T05:55:34;0.00;;;0.00;;
13689;SDS011;6917;52.194;9.894;2022-10-31T05:58:00;0.00;;;0.00;;
13689;SDS011;6917;52.194;9.894;2022-10-31T06:00:25;0.77;;;0.77;;
13689;SDS011;6917;52.194;9.894;2022-10-31T06:02:58;0.30;;;0.30;;
13689;SDS011;6917;52.194;9.894;2022-10-31T06:05:24;4.17;;;2.93;;
13689;SDS011;6917;52.194;9.894;2022-10-31T06:07:50;1.80;;;1.40;;
13689;SDS011;6917;52.194;9.894;2022-10-31T06:10:15;0.00;;;0.00;;
13689;SDS011;6917;52.194;9.894;2022-10-31T06:12:40;28.33;;;3.40;;
13689;SDS011;6917;52.194;9.894;2022-10-31T06:15:06;1.27;;;1.20;;
13689;SDS011;6917;52.194;9.894;2022-10-31T06:17:33;1.03;;;1.03;;
13689;SDS011;6917;52.194;9.894;2022-10-31T06:19:59;0.00;;;0.00;;
13689;SDS011;6917;52.194;9.894;2022-10-31T06:22:25;0.00;;;0.00;;
13689;SDS011;6917;52.194;9.894;2022-10-31T06:24:50;0.00;;;0.00;;
13689;SDS011;6917;52.194;9.894;2022-10-31T06:27:16;0.00;;;0.00;;
13689;SDS011;6917;52.194;9.894;2022-10-31T06:29:41;0.00;;;0.00;;
13689;SDS011;6917;52.194;9.894;2022-10-31T06:32:09;0.00;;;0.00;;
13689;SDS011;6917;52.194;9.894;2022-10-31T06:34:35;0.10;;;0.10;;
13689;SDS011;6917;52.194;9.894;2022-10-31T06:37:00;0.00;;;0.00;;
13689;SDS011;6917;52.194;9.894;2022-10-31T06:39:25;0.00;;;0.00;;
13689;SDS011;6917;52.194;9.894;2022-10-31T06:41:50;0.00;;;0.00;;
13689;SDS011;6917;52.194;9.894;2022-10-31T06:44:16;0.00;;;0.00;;
13689;SDS011;6917;52.194;9.894;2022-10-31T06:46:41;17.13;;;2.63;;
13689;SDS011;6917;52.194;9.894;2022-10-31T06:49:06;0.00;;;0.00;;
13689;SDS011;6917;52.194;9.894;2022-10-31T06:51:32;0.00;;;0.00;;
13689;SDS011;6917;52.194;9.894;2022-10-31T06:53:57;0.00;;;0.00;;
13689;SDS011;6917;52.194;9.894;2022-10-31T06:56:22;0.00;;;0.00;;
13689;SDS011;6917;52.194;9.894;2022-10-31T06:58:47;0.00;;;0.00;;
13689;SDS011;6917;52.194;9.894;2022-10-31T07:01:13;0.00;;;0.00;;
13689;SDS011;6917;52.194;9.894;2022-10-31T07:03:38;0.00;;;0.00;;
13689;SDS011;6917;52.194;9.894;2022-10-31T07:06:03;0.00;;;0.00;;
13689;SDS011;6917;52.194;9.894;2022-10-31T07:08:29;0.13;;;0.13;;
13689;SDS011;6917;52.194;9.894;2022-10-31T07:10:55;1.80;;;1.70;;
13689;SDS011;6917;52.194;9.894;2022-10-31T07:13:22;0.00;;;0.00;;
13689;SDS011;6917;52.194;9.894;2022-10-31T07:15:50;0.00;;;0.00;;
13689;SDS011;6917;52.194;9.894;2022-10-31T07:18:17;0.00;;;0.00;;
13689;SDS011;6917;52.194;9.894;2022-10-31T07:20:43;0.00;;;0.00;;
13689;SDS011;6917;52.194;9.894;2022-10-31T07:23:11;0.00;;;0.00;;
13689;SDS011;6917;52.194;9.894;2022-10-31T07:25:39;0.00;;;0.00;;
13689;SDS011;6917;52.194;9.894;2022-10-31T07:28:05;0.00;;;0.00;;
13689;SDS011;6917;52.194;9.894;2022-10-31T07:30:31;0.00;;;0.00;;
13689;SDS011;6917;52.194;9.894;2022-10-31T07:32:56;0.37;;;0.37;;
13689;SDS011;6917;52.194;9.894;2022-10-31T07:35:23;0.00;;;0.00;;
13689;SDS011;6917;52.194;9.894;2022-10-31T07:37:50;0.00;;;0.00;;
13689;SDS011;6917;52.194;9.894;2022-10-31T07:40:16;0.00;;;0.00;;
13689;SDS011;6917;52.194;9.894;2022-10-31T07:42:42;9.27;;;2.67;;
13689;SDS011;6917;52.194;9.894;2022-10-31T07:45:10;0.30;;;0.30;;
13689;SDS011;6917;52.194;9.894;2022-10-31T07:47:44;0.00;;;0.00;;
13689;SDS011;6917;52.194;9.894;2022-10-31T07:50:12;0.00;;;0.00;;
13689;SDS011;6917;52.194;9.894;2022-10-31T07:52:39;0.00;;;0.00;;
13689;SDS011;6917;52.194;9.894;2022-10-31T07:55:05;0.00;;;0.00;;
13689;SDS011;6917;52.194;9.894;2022-10-31T07:57:31;0.00;;;0.00;;
13689;SDS011;6917;52.194;9.894;2022-10-31T07:59:56;0.00;;;0.00;;
13689;SDS011;6917;52.194;9.894;2022-10-31T08:02:22;0.00;;;0.00;;
13689;SDS011;6917;52.194;9.894;2022-10-31T08:04:47;0.00;;;0.00;;
13689;SDS011;6917;52.194;9.894;2022-10-31T08:07:13;1.43;;;1.40;;
13689;SDS011;6917;52.194;9.894;2022-10-31T08:09:39;0.50;;;0.50;;
13689;SDS011;6917;52.194;9.894;2022-10-31T08:12:04;0.10;;;0.10;;
13689;SDS011;6917;52.194;9.894;2022-10-31T08:14:30;0.00;;;0.00;;
13689;SDS011;6917;52.194;9.894;2022-10-31T08:16:55;1.70;;;0.87;;
13689;SDS011;6917;52.194;9.894;2022-10-31T08:19:21;0.30;;;0.30;;
13689;SDS011;6917;52.194;9.894;2022-10-31T08:21:46;0.00;;;0.00;;
13689;SDS011;6917;52.194;9.894;2022-10-31T08:24:11;0.00;;;0.00;;
13689;SDS011;6917;52.194;9.894;2022-10-31T08:26:37;0.00;;;0.00;;
13689;SDS011;6917;52.194;9.894;2022-10-31T08:29:02;5.10;;;2.53;;
13689;SDS011;6917;52.194;9.894;2022-10-31T08:31:28;0.00;;;0.00;;
13689;SDS011;6917;52.194;9.894;2022-10-31T08:33:54;0.00;;;0.00;;
13689;SDS011;6917;52.194;9.894;2022-10-31T08:36:19;0.00;;;0.00;;
13689;SDS011;6917;52.194;9.894;2022-10-31T08:38:46;0.00;;;0.00;;
13689;SDS011;6917;52.194;9.894;2022-10-31T08:41:12;0.00;;;0.00;;
13689;SDS011;6917;52.194;9.894;2022-10-31T08:43:37;0.17;;;0.17;;
13689;SDS011;6917;52.194;9.894;2022-10-31T08:46:02;0.30;;;0.30;;
13689;SDS011;6917;52.194;9.894;2022-10-31T08:48:28;0.00;;;0.00;;
13689;SDS011;6917;52.194;9.894;2022-10-31T08:50:55;0.57;;;0.30;;
13689;SDS011;6917;52.194;9.894;2022-10-31T08:53:22;0.60;;;0.60;;
13689;SDS011;6917;52.194;9.894;2022-10-31T08:55:48;0.00;;;0.00;;
13689;SDS011;6917;52.194;9.894;2022-10-31T08:58:15;0.00;;;0.00;;
13689;SDS011;6917;52.194;9.894;2022-10-31T09:00:42;0.33;;;0.33;;
13689;SDS011;6917;52.194;9.894;2022-10-31T09:03:11;0.00;;;0.00;;
13689;SDS011;6917;52.194;9.894;2022-10-31T09:05:39;0.03;;;0.03;;
13689;SDS011;6917;52.194;9.894;2022-10-31T09:08:05;0.20;;;0.20;;
13689;SDS011;6917;52.194;9.894;2022-10-31T09:10:32;0.00;;;0.00;;
13689;SDS011;6917;52.194;9.894;2022-10-31T09:13:03;0.20;;;0.20;;
13689;SDS011;6917;52.194;9.894;2022-10-31T09:15:34;0.00;;;0.00;;
13689;SDS011;6917;52.194;9.894;2022-10-31T09:18:01;0.00;;;0.00;;
13689;SDS011;6917;52.194;9.894;2022-10-31T09:20:26;1.07;;;1.07;;
13689;SDS011;6917;52.194;9.894;2022-10-31T09:22:56;0.00;;;0.00;;
13689;SDS011;6917;52.194;9.894;2022-10-31T09:25:23;0.00;;;0.00;;
13689;SDS011;6917;52.194;9.894;2022-10-31T09:27:48;0.00;;;0.00;;
13689;SDS011;6917;52.194;9.894;2022-10-31T09:30:13;0.00;;;0.00;;
13689;SDS011;6917;52.194;9.894;2022-10-31T09:32:39;0.00;;;0.00;;
13689;SDS011;6917;52.194;9.894;2022-10-31T09:35:04;0.00;;;0.00;;
13689;SDS011;6917;52.194;9.894;2022-10-31T09:37:30;0.00;;;0.00;;
13689;SDS011;6917;52.194;9.894;2022-10-31T09:39:55;0.30;;;0.30;;
13689;SDS011;6917;52.194;9.894;2022-10-31T09:42:39;0.03;;;0.03;;
13689;SDS011;6917;52.194;9.894;2022-10-31T09:45:16;0.00;;;0.00;;
13689;SDS011;6917;52.194;9.894;2022-10-31T09:48:02;0.40;;;0.40;;
13689;SDS011;6917;52.194;9.894;2022-10-31T09:50:31;1.20;;;1.20;;
13689;SDS011;6917;52.194;9.894;2022-10-31T09:56:00;0.00;;;0.00;;
13689;SDS011;6917;52.194;9.894;2022-10-31T09:58:29;0.83;;;0.83;;
13689;SDS011;6917;52.194;9.894;2022-10-31T10:00:58;1.03;;;0.57;;
13689;SDS011;6917;52.194;9.894;2022-10-31T10:03:28;0.77;;;0.77;;
13689;SDS011;6917;52.194;9.894;2022-10-31T10:08:32;0.23;;;0.17;;
13689;SDS011;6917;52.194;9.894;2022-10-31T10:22:29;0.30;;;0.30;;
13689;SDS011;6917;52.194;9.894;2022-10-31T10:25:12;0.03;;;0.03;;
13689;SDS011;6917;52.194;9.894;2022-10-31T10:33:13;0.00;;;0.00;;
13689;SDS011;6917;52.194;9.894;2022-10-31T10:35:45;1.43;;;0.73;;
13689;SDS011;6917;52.194;9.894;2022-10-31T10:41:16;0.00;;;0.00;;
13689;SDS011;6917;52.194;9.894;2022-10-31T10:43:43;0.00;;;0.00;;
13689;SDS011;6917;52.194;9.894;2022-10-31T10:51:41;0.00;;;0.00;;
13689;SDS011;6917;52.194;9.894;2022-10-31T10:56:58;0.37;;;0.37;;
13689;SDS011;6917;52.194;9.894;2022-10-31T10:59:32;0.10;;;0.10;;
13689;SDS011;6917;52.194;9.894;2022-10-31T11:01:59;0.23;;;0.23;;
13689;SDS011;6917;52.194;9.894;2022-10-31T11:04:32;0.00;;;0.00;;
13689;SDS011;6917;52.194;9.894;2022-10-31T11:07:00;0.57;;;0.53;;
13689;SDS011;6917;52.194;9.894;2022-10-31T11:09:29;0.00;;;0.00;;
13689;SDS011;6917;52.194;9.894;2022-10-31T11:11:54;0.00;;;0.00;;
13689;SDS011;6917;52.194;9.894;2022-10-31T11:14:21;0.00;;;0.00;;
13689;SDS011;6917;52.194;9.894;2022-10-31T11:17:10;0.00;;;0.00;;
13689;SDS011;6917;52.194;9.894;2022-10-31T11:19:40;1.40;;;1.30;;
13689;SDS011;6917;52.194;9.894;2022-10-31T11:22:14;0.53;;;0.53;;
13689;SDS011;6917;52.194;9.894;2022-10-31T11:24:41;0.00;;;0.00;;
13689;SDS011;6917;52.194;9.894;2022-10-31T11:27:16;2.97;;;2.70;;
13689;SDS011;6917;52.194;9.894;2022-10-31T11:29:46;0.00;;;0.00;;
13689;SDS011;6917;52.194;9.894;2022-10-31T11:32:16;0.00;;;0.00;;
13689;SDS011;6917;52.194;9.894;2022-10-31T11:34:45;0.30;;;0.30;;
13689;SDS011;6917;52.194;9.894;2022-10-31T11:37:19;0.00;;;0.00;;
13689;SDS011;6917;52.194;9.894;2022-10-31T11:39:50;2.13;;;1.33;;
13689;SDS011;6917;52.194;9.894;2022-10-31T11:42:19;0.20;;;0.20;;
13689;SDS011;6917;52.194;9.894;2022-10-31T11:44:47;0.00;;;0.00;;
13689;SDS011;6917;52.194;9.894;2022-10-31T11:47:14;1.80;;;0.83;;
13689;SDS011;6917;52.194;9.894;2022-10-31T11:49:42;0.37;;;0.37;;
13689;SDS011;6917;52.194;9.894;2022-10-31T11:52:17;3.30;;;1.90;;
13689;SDS011;6917;52.194;9.894;2022-10-31T11:55:13;0.20;;;0.20;;
13689;SDS011;6917;52.194;9.894;2022-10-31T11:57:59;0.00;;;0.00;;
13689;SDS011;6917;52.194;9.894;2022-10-31T12:00:37;0.00;;;0.00;;
13689;SDS011;6917;52.194;9.894;2022-10-31T12:03:04;1.03;;;1.03;;
13689;SDS011;6917;52.194;9.894;2022-10-31T12:05:37;5.80;;;2.20;;
13689;SDS011;6917;52.194;9.894;2022-10-31T12:08:06;0.93;;;0.93;;
13689;SDS011;6917;52.194;9.894;2022-10-31T12:10:50;0.93;;;0.40;;
13689;SDS011;6917;52.194;9.894;2022-10-31T12:16:01;0.30;;;0.30;;
13689;SDS011;6917;52.194;9.894;2022-10-31T12:32:43;0.23;;;0.23;;
13689;SDS011;6917;52.194;9.894;2022-10-31T12:35:25;0.40;;;0.40;;
13689;SDS011;6917;52.194;9.894;2022-10-31T12:49:39;0.40;;;0.40;;
13689;SDS011;6917;52.194;9.894;2022-10-31T12:57:44;0.10;;;0.10;;
13689;SDS011;6917;52.194;9.894;2022-10-31T13:00:15;0.73;;;0.73;;
13689;SDS011;6917;52.194;9.894;2022-10-31T13:02:51;0.00;;;0.00;;
13689;SDS011;6917;52.194;9.894;2022-10-31T13:05:27;1.70;;;1.57;;
13689;SDS011;6917;52.194;9.894;2022-10-31T13:08:10;2.60;;;2.17;;
13689;SDS011;6917;52.194;9.894;2022-10-31T13:10:52;2.93;;;2.67;;
13689;SDS011;6917;52.194;9.894;2022-10-31T13:13:30;2.67;;;1.17;;
13689;SDS011;6917;52.194;9.894;2022-10-31T13:16:15;0.60;;;0.60;;
13689;SDS011;6917;52.194;9.894;2022-10-31T13:21:25;0.00;;;0.00;;
13689;SDS011;6917;52.194;9.894;2022-10-31T13:23:53;0.40;;;0.40;;
13689;SDS011;6917;52.194;9.894;2022-10-31T13:26:46;1.80;;;0.93;;
13689;SDS011;6917;52.194;9.894;2022-10-31T13:31:52;0.40;;;0.40;;
13689;SDS011;6917;52.194;9.894;2022-10-31T13:34:28;0.00;;;0.00;;
13689;SDS011;6917;52.194;9.894;2022-10-31T13:37:05;0.20;;;0.20;;
13689;SDS011;6917;52.194;9.894;2022-10-31T13:45:15;2.97;;;2.77;;
13689;SDS011;6917;52.194;9.894;2022-10-31T13:47:42;1.50;;;1.50;;
13689;SDS011;6917;52.194;9.894;2022-10-31T13:52:45;5.67;;;2.20;;
13689;SDS011;6917;52.194;9.894;2022-10-31T13:58:19;0.00;;;0.00;;
13689;SDS011;6917;52.194;9.894;2022-10-31T14:00:57;0.00;;;0.00;;
13689;SDS011;6917;52.194;9.894;2022-10-31T14:03:24;0.00;;;0.00;;
13689;SDS011;6917;52.194;9.894;2022-10-31T14:05:53;0.53;;;0.43;;
13689;SDS011;6917;52.194;9.894;2022-10-31T14:08:21;1.90;;;1.80;;
13689;SDS011;6917;52.194;9.894;2022-10-31T14:10:49;0.00;;;0.00;;
13689;SDS011;6917;52.194;9.894;2022-10-31T14:15:58;4.20;;;3.83;;
13689;SDS011;6917;52.194;9.894;2022-10-31T14:18:31;0.20;;;0.20;;
13689;SDS011;6917;52.194;9.894;2022-10-31T14:20:56;0.47;;;0.33;;
13689;SDS011;6917;52.194;9.894;2022-10-31T14:23:40;0.00;;;0.00;;
13689;SDS011;6917;52.194;9.894;2022-10-31T14:28:48;0.97;;;0.97;;
13689;SDS011;6917;52.194;9.894;2022-10-31T14:34:23;3.67;;;3.37;;
13689;SDS011;6917;52.194;9.894;2022-10-31T14:39:51;0.63;;;0.30;;
13689;SDS011;6917;52.194;9.894;2022-10-31T14:53:12;0.00;;;0.00;;
13689;SDS011;6917;52.194;9.894;2022-10-31T14:55:44;0.00;;;0.00;;
13689;SDS011;6917;52.194;9.894;2022-10-31T14:58:15;0.27;;;0.23;;
13689;SDS011;6917;52.194;9.894;2022-10-31T15:00:44;0.43;;;0.43;;
13689;SDS011;6917;52.194;9.894;2022-10-31T15:03:17;0.00;;;0.00;;
13689;SDS011;6917;52.194;9.894;2022-10-31T15:05:51;0.47;;;0.30;;
13689;SDS011;6917;52.194;9.894;2022-10-31T15:08:35;0.57;;;0.30;;
13689;SDS011;6917;52.194;9.894;2022-10-31T15:11:19;0.10;;;0.07;;
13689;SDS011;6917;52.194;9.894;2022-10-31T15:13:49;0.03;;;0.03;;
13689;SDS011;6917;52.194;9.894;2022-10-31T15:16:18;0.00;;;0.00;;
13689;SDS011;6917;52.194;9.894;2022-10-31T15:18:51;0.00;;;0.00;;
13689;SDS011;6917;52.194;9.894;2022-10-31T15:21:19;0.37;;;0.37;;
13689;SDS011;6917;52.194;9.894;2022-10-31T15:23:46;0.47;;;0.23;;
13689;SDS011;6917;52.194;9.894;2022-10-31T15:26:15;0.97;;;0.97;;
13689;SDS011;6917;52.194;9.894;2022-10-31T15:28:43;2.80;;;0.30;;
13689;SDS011;6917;52.194;9.894;2022-10-31T15:31:13;0.00;;;0.00;;
13689;SDS011;6917;52.194;9.894;2022-10-31T15:33:42;0.13;;;0.13;;
13689;SDS011;6917;52.194;9.894;2022-10-31T15:36:23;0.53;;;0.53;;
13689;SDS011;6917;52.194;9.894;2022-10-31T15:38:50;10.30;;;0.87;;
13689;SDS011;6917;52.194;9.894;2022-10-31T15:44:03;0.00;;;0.00;;
13689;SDS011;6917;52.194;9.894;2022-10-31T15:46:41;8.70;;;7.93;;
13689;SDS011;6917;52.194;9.894;2022-10-31T15:49:21;0.47;;;0.47;;
13689;SDS011;6917;52.194;9.894;2022-10-31T15:51:55;0.73;;;0.73;;
13689;SDS011;6917;52.194;9.894;2022-10-31T15:54:23;0.90;;;0.90;;
13689;SDS011;6917;52.194;9.894;2022-10-31T15:56:48;0.53;;;0.53;;
13689;SDS011;6917;52.194;9.894;2022-10-31T15:59:17;0.00;;;0.00;;
13689;SDS011;6917;52.194;9.894;2022-10-31T16:01:58;0.00;;;0.00;;
13689;SDS011;6917;52.194;9.894;2022-10-31T16:04:25;0.60;;;0.60;;
13689;SDS011;6917;52.194;9.894;2022-10-31T16:09:52;0.10;;;0.10;;
13689;SDS011;6917;52.194;9.894;2022-10-31T16:12:25;0.43;;;0.43;;
13689;SDS011;6917;52.194;9.894;2022-10-31T16:14:59;4.03;;;2.97;;
13689;SDS011;6917;52.194;9.894;2022-10-31T16:17:25;0.20;;;0.20;;
13689;SDS011;6917;52.194;9.894;2022-10-31T16:19:54;0.00;;;0.00;;
13689;SDS011;6917;52.194;9.894;2022-10-31T16:22:23;0.47;;;0.47;;
13689;SDS011;6917;52.194;9.894;2022-10-31T16:27:35;0.00;;;0.00;;
13689;SDS011;6917;52.194;9.894;2022-10-31T16:30:03;0.23;;;0.23;;
13689;SDS011;6917;52.194;9.894;2022-10-31T16:32:57;0.00;;;0.00;;
13689;SDS011;6917;52.194;9.894;2022-10-31T16:38:00;1.30;;;1.30;;
13689;SDS011;6917;52.194;9.894;2022-10-31T16:40:25;0.00;;;0.00;;
13689;SDS011;6917;52.194;9.894;2022-10-31T16:42:51;0.23;;;0.20;;
13689;SDS011;6917;52.194;9.894;2022-10-31T16:45:18;0.20;;;0.10;;
13689;SDS011;6917;52.194;9.894;2022-10-31T16:47:45;0.20;;;0.20;;
13689;SDS011;6917;52.194;9.894;2022-10-31T16:50:12;0.00;;;0.00;;
13689;SDS011;6917;52.194;9.894;2022-10-31T16:52:59;0.00;;;0.00;;
13689;SDS011;6917;52.194;9.894;2022-10-31T16:55:24;0.30;;;0.20;;
13689;SDS011;6917;52.194;9.894;2022-10-31T16:57:52;0.37;;;0.37;;
13689;SDS011;6917;52.194;9.894;2022-10-31T17:00:21;2.00;;;1.20;;
13689;SDS011;6917;52.194;9.894;2022-10-31T17:02:48;0.00;;;0.00;;
13689;SDS011;6917;52.194;9.894;2022-10-31T17:05:23;0.00;;;0.00;;
13689;SDS011;6917;52.194;9.894;2022-10-31T17:07:55;0.10;;;0.10;;
13689;SDS011;6917;52.194;9.894;2022-10-31T17:10:26;0.57;;;0.57;;
13689;SDS011;6917;52.194;9.894;2022-10-31T17:12:51;0.00;;;0.00;;
13689;SDS011;6917;52.194;9.894;2022-10-31T17:15:22;0.00;;;0.00;;
13689;SDS011;6917;52.194;9.894;2022-10-31T17:17:49;0.00;;;0.00;;
13689;SDS011;6917;52.194;9.894;2022-10-31T17:20:22;0.00;;;0.00;;
13689;SDS011;6917;52.194;9.894;2022-10-31T17:22:50;0.00;;;0.00;;
13689;SDS011;6917;52.194;9.894;2022-10-31T17:25:17;0.00;;;0.00;;
13689;SDS011;6917;52.194;9.894;2022-10-31T17:27:48;0.00;;;0.00;;
13689;SDS011;6917;52.194;9.894;2022-10-31T17:30:14;0.00;;;0.00;;
13689;SDS011;6917;52.194;9.894;2022-10-31T17:32:42;0.57;;;0.57;;
13689;SDS011;6917;52.194;9.894;2022-10-31T17:35:09;0.00;;;0.00;;
13689;SDS011;6917;52.194;9.894;2022-10-31T17:37:35;0.63;;;0.63;;